Time;durP1;ratioP1;P1;durP2;ratioP2;P2;SDS_P1;SDS_P2;PMS_P1;PMS_P2;Temp;Humidity;BMP_temperature;BMP_pressure;BME280_temperature;BME280_humidity;BME280_pressure;Samples;Min_cycle;Max_cycle;Signal;HPM_P1;HPM_P2
2022/11/15 00:00:09;;;;;;;6.78;1.80;;;10.90;99.90;;;;;;5048558;28;20442;-62
2022/11/15 00:02:55;;;;;;;8.63;1.70;;;11.00;99.90;;;;;;5047533;28;20064;-62
2022/11/15 00:05:40;;;;;;;5.10;1.52;;;10.90;99.90;;;;;;5044922;28;20396;-62
2022/11/15 00:08:25;;;;;;;7.10;1.83;;;10.90;99.90;;;;;;5046719;28;20076;-64
2022/11/15 00:11:11;;;;;;;8.50;1.33;;;10.80;99.90;;;;;;5046577;28;20044;-63
2022/11/15 00:13:57;;;;;;;11.55;2.30;;;10.80;99.90;;;;;;5039754;28;20180;-63
2022/11/15 00:16:42;;;;;;;7.82;1.60;;;10.80;99.90;;;;;;5036514;28;20542;-62
2022/11/15 00:19:27;;;;;;;7.15;1.80;;;10.80;99.90;;;;;;5036785;28;20099;-62
2022/11/15 00:22:12;;;;;;;6.47;1.65;;;10.80;99.90;;;;;;5037071;28;20053;-62
2022/11/15 00:24:57;;;;;;;6.72;1.77;;;10.80;99.90;;;;;;5035833;28;20051;-63
2022/11/15 00:27:42;;;;;;;7.93;1.83;;;10.70;99.90;;;;;;5036449;28;20523;-62
2022/11/15 00:30:27;;;;;;;8.00;1.93;;;10.70;99.90;;;;;;5054855;28;20127;-63
2022/11/15 00:33:12;;;;;;;10.82;1.92;;;10.70;99.90;;;;;;5056827;28;20183;-62
2022/11/15 00:35:57;;;;;;;9.40;2.00;;;10.70;99.90;;;;;;5065550;28;20051;-62
2022/11/15 00:38:42;;;;;;;7.32;1.92;;;10.70;99.90;;;;;;5076585;28;20519;-63
2022/11/15 00:41:28;;;;;;;10.23;1.88;;;10.60;99.90;;;;;;5076255;28;20566;-63
2022/11/15 00:44:13;;;;;;;11.00;2.05;;;10.60;99.90;;;;;;5075944;28;20059;-61
2022/11/15 00:46:58;;;;;;;9.90;2.00;;;10.60;99.90;;;;;;5062546;28;20104;-62
2022/11/15 00:49:43;;;;;;;11.25;2.03;;;10.60;99.90;;;;;;5036168;28;20180;-63
2022/11/15 00:52:28;;;;;;;4.47;1.35;;;10.60;99.90;;;;;;5036194;28;20060;-63
2022/11/15 00:55:14;;;;;;;16.88;2.40;;;10.60;99.90;;;;;;5035643;28;20052;-63
2022/11/15 00:57:59;;;;;;;;;;;10.60;99.90;;;;;;5036170;28;20136;-62
2022/11/15 01:00:45;;;;;;;12.88;2.45;;;10.60;99.90;;;;;;5035732;28;19928;-63
2022/11/15 01:03:30;;;;;;;9.95;1.77;;;10.60;99.90;;;;;;5036638;28;20176;-62
2022/11/15 01:06:16;;;;;;;8.30;1.60;;;10.60;99.90;;;;;;5035742;28;20087;-62
2022/11/15 01:09:01;;;;;;;12.63;2.65;;;10.60;99.90;;;;;;5048701;28;20051;-62
2022/11/15 01:11:46;;;;;;;7.47;1.60;;;10.60;99.90;;;;;;5046941;28;20174;-62
2022/11/15 01:14:31;;;;;;;11.40;2.03;;;10.60;99.90;;;;;;5046380;28;20409;-62
2022/11/15 01:17:16;;;;;;;7.70;1.90;;;10.60;99.90;;;;;;5040257;28;20047;-62
2022/11/15 01:20:01;;;;;;;7.77;1.70;;;10.60;99.90;;;;;;5047597;28;20205;-62
2022/11/15 01:22:46;;;;;;;7.57;2.07;;;10.60;99.90;;;;;;5035066;28;20064;-62
2022/11/15 01:25:31;;;;;;;10.30;1.50;;;10.60;99.90;;;;;;5042815;28;20052;-62
2022/11/15 01:28:16;;;;;;;11.70;1.80;;;10.60;99.90;;;;;;5055365;28;20055;-61
2022/11/15 01:31:01;;;;;;;12.73;1.93;;;10.60;99.90;;;;;;5047600;28;20064;-60
2022/11/15 01:33:46;;;;;;;9.73;2.30;;;10.60;99.90;;;;;;5053454;28;20111;-61
2022/11/15 01:36:32;;;;;;;11.23;1.88;;;10.60;99.90;;;;;;5048015;28;20095;-61
2022/11/15 01:39:17;;;;;;;12.02;2.08;;;10.60;99.90;;;;;;5053234;28;20063;-63
2022/11/15 01:42:02;;;;;;;12.15;2.17;;;10.60;99.90;;;;;;5055905;28;20427;-61
2022/11/15 01:44:47;;;;;;;9.38;1.65;;;10.60;99.90;;;;;;5055037;28;20052;-63
2022/11/15 01:47:32;;;;;;;11.20;1.63;;;10.60;99.90;;;;;;5054437;28;20060;-64
2022/11/15 01:50:17;;;;;;;10.70;1.97;;;10.60;99.90;;;;;;5034569;28;20107;-64
2022/11/15 01:53:02;;;;;;;12.38;2.10;;;10.60;99.90;;;;;;5034838;28;20052;-63
2022/11/15 01:55:47;;;;;;;11.32;1.70;;;10.60;99.90;;;;;;5041195;28;20044;-64
2022/11/15 01:58:33;;;;;;;9.95;1.60;;;10.60;99.90;;;;;;5054876;28;20048;-63
2022/11/15 02:01:18;;;;;;;9.17;1.70;;;10.60;99.90;;;;;;5043885;28;20531;-64
2022/11/15 02:04:03;;;;;;;8.18;1.80;;;10.60;99.90;;;;;;5041343;28;20118;-61
2022/11/15 02:06:49;;;;;;;12.77;1.77;;;10.50;99.90;;;;;;5047180;28;20095;-63
2022/11/15 02:09:35;;;;;;;10.50;1.95;;;10.50;99.90;;;;;;5053851;28;20047;-63
2022/11/15 02:12:20;;;;;;;5.57;1.73;;;10.50;99.90;;;;;;5042496;28;20068;-63
2022/11/15 02:15:05;;;;;;;11.40;2.60;;;10.50;99.90;;;;;;5054320;28;20056;-64
2022/11/15 02:17:50;;;;;;;9.85;1.70;;;10.50;99.90;;;;;;5054658;28;20554;-63
2022/11/15 02:20:35;;;;;;;14.60;2.20;;;10.50;99.90;;;;;;5054747;28;20056;-63
2022/11/15 02:23:21;;;;;;;7.95;1.67;;;10.50;99.90;;;;;;5039525;28;20426;-64
2022/11/15 02:26:07;;;;;;;11.97;2.13;;;10.50;99.90;;;;;;5034050;28;20052;-63
2022/11/15 02:28:52;;;;;;;6.47;1.80;;;10.50;99.90;;;;;;5038946;28;20047;-64
2022/11/15 02:31:37;;;;;;;10.13;1.60;;;10.50;99.90;;;;;;5053939;28;20368;-63
2022/11/15 02:34:23;;;;;;;13.80;1.60;;;10.60;99.90;;;;;;5053517;28;20052;-63
2022/11/15 02:37:08;;;;;;;13.50;2.00;;;10.50;99.90;;;;;;5053691;28;20067;-63
2022/11/15 02:39:53;;;;;;;9.13;1.67;;;10.50;99.90;;;;;;5053762;28;20060;-63
2022/11/15 02:45:46;;;;;;;8.27;1.40;;;10.50;99.90;;;;;;5053135;28;20134;-63
2022/11/15 02:48:31;;;;;;;11.38;1.55;;;10.50;99.90;;;;;;5053341;28;20047;-63
2022/11/15 02:51:16;;;;;;;6.28;1.33;;;10.50;99.90;;;;;;5053645;28;20067;-63
2022/11/15 02:54:01;;;;;;;9.90;1.43;;;10.40;99.90;;;;;;5053517;28;20060;-63
2022/11/15 02:56:46;;;;;;;9.67;1.63;;;10.40;99.90;;;;;;5053364;28;20645;-63
2022/11/15 02:59:31;;;;;;;6.80;1.55;;;10.40;99.90;;;;;;5042037;28;20171;-63
2022/11/15 03:02:16;;;;;;;10.17;1.57;;;10.40;99.90;;;;;;5034198;28;20063;-62
2022/11/15 03:05:01;;;;;;;11.57;2.33;;;10.40;99.90;;;;;;5036663;28;20068;-63
2022/11/15 03:07:46;;;;;;;9.40;1.58;;;10.40;99.90;;;;;;5042149;28;20272;-63
2022/11/15 03:10:32;;;;;;;7.13;1.42;;;10.40;99.90;;;;;;5052986;28;20138;-63
2022/11/15 03:13:17;;;;;;;13.33;1.90;;;10.40;99.90;;;;;;5034866;28;20080;-62
2022/11/15 03:16:02;;;;;;;7.85;1.48;;;10.50;99.90;;;;;;5034027;28;20488;-63
2022/11/15 03:18:47;;;;;;;9.70;1.70;;;10.50;99.90;;;;;;5034042;28;20057;-63
2022/11/15 03:21:32;;;;;;;12.32;1.55;;;10.50;99.90;;;;;;5053411;28;20052;-63
2022/11/15 03:24:17;;;;;;;9.40;1.87;;;10.50;99.90;;;;;;5044141;28;20045;-63
2022/11/15 03:27:10;;;;;;;9.15;1.50;;;10.60;99.90;;;;;;5033610;28;20274;-62
2022/11/15 03:29:54;;;;;;;9.15;1.67;;;10.60;99.90;;;;;;5033901;28;20056;-63
2022/11/15 03:32:39;;;;;;;8.57;1.60;;;10.60;99.90;;;;;;5033736;28;20632;-63
2022/11/15 03:35:24;;;;;;;7.55;1.60;;;10.70;99.90;;;;;;5033540;28;20072;-63
2022/11/15 03:38:09;;;;;;;10.17;1.57;;;10.70;99.90;;;;;;5033870;28;20053;-62
2022/11/15 03:40:55;;;;;;;8.70;1.88;;;10.70;99.90;;;;;;5033426;28;20052;-63
2022/11/15 03:43:40;;;;;;;9.68;1.50;;;10.70;99.90;;;;;;5033941;28;20056;-63
2022/11/15 03:46:25;;;;;;;8.48;1.65;;;10.80;99.90;;;;;;5033333;28;20053;-63
2022/11/15 03:49:10;;;;;;;9.00;1.83;;;10.80;99.90;;;;;;5033602;28;20061;-63
2022/11/15 03:51:55;;;;;;;6.28;1.70;;;10.70;99.90;;;;;;5033658;28;20064;-64
2022/11/15 03:54:40;;;;;;;12.63;1.95;;;10.80;99.90;;;;;;5033541;28;20056;-64
2022/11/15 03:57:26;;;;;;;12.32;1.83;;;10.70;99.90;;;;;;5033264;28;20065;-63
2022/11/15 04:00:11;;;;;;;9.33;1.70;;;10.70;99.90;;;;;;5037110;28;20048;-63
2022/11/15 04:02:56;;;;;;;12.23;1.90;;;10.70;99.90;;;;;;5070739;28;20131;-63
2022/11/15 04:05:41;;;;;;;7.27;1.70;;;10.70;99.90;;;;;;5072594;28;20119;-63
2022/11/15 04:08:26;;;;;;;14.30;2.27;;;10.70;99.90;;;;;;5073239;28;20265;-63
2022/11/15 04:11:11;;;;;;;9.93;1.70;;;10.70;99.90;;;;;;5058030;28;20132;-62
2022/11/15 04:13:56;;;;;;;11.85;1.55;;;10.70;99.90;;;;;;5036853;28;20274;-64
2022/11/15 04:16:41;;;;;;;13.97;1.83;;;10.70;99.90;;;;;;5036480;28;20135;-63
2022/11/15 04:25:36;;;;;;;9.90;1.98;;;10.80;99.90;;;;;;5037296;28;20063;-63
2022/11/15 04:28:21;;;;;;;18.10;2.05;;;10.80;99.90;;;;;;5036567;28;20520;-62
2022/11/15 04:31:06;;;;;;;12.13;1.90;;;10.80;99.90;;;;;;5041799;28;20504;-63
2022/11/15 04:33:51;;;;;;;17.85;2.28;;;10.90;99.90;;;;;;5056579;28;20056;-63
2022/11/15 04:39:40;;;;;;;12.20;1.88;;;11.00;99.90;;;;;;5056635;28;20457;-63
2022/11/15 04:42:26;;;;;;;11.50;2.17;;;11.00;99.90;;;;;;5056637;28;20047;-63
2022/11/15 04:45:11;;;;;;;9.48;2.00;;;11.10;99.90;;;;;;5038759;28;20107;-63
2022/11/15 04:47:56;;;;;;;14.82;2.60;;;11.20;99.90;;;;;;5036334;28;20060;-63
2022/11/15 04:50:41;;;;;;;11.97;1.80;;;11.20;99.90;;;;;;5039759;28;20072;-63
2022/11/15 04:53:26;;;;;;;13.30;1.83;;;11.30;99.90;;;;;;5047545;28;20107;-63
2022/11/15 04:56:11;;;;;;;15.68;2.38;;;11.30;99.90;;;;;;5050590;28;20369;-64
2022/11/15 04:58:56;;;;;;;18.02;2.35;;;11.30;99.90;;;;;;5053872;28;20052;-64
2022/11/15 05:01:41;;;;;;;15.43;2.63;;;11.40;99.90;;;;;;5048096;28;20048;-63
2022/11/15 05:04:29;;;;;;;11.68;1.77;;;11.40;99.90;;;;;;5043964;28;20443;-63
2022/11/15 05:07:14;;;;;;;17.20;2.27;;;11.40;99.90;;;;;;5040465;28;20102;-64
2022/11/15 05:10:00;;;;;;;12.43;2.33;;;11.50;99.90;;;;;;5049628;28;20083;-64
2022/11/15 05:12:45;;;;;;;12.43;2.27;;;11.50;99.90;;;;;;5035614;28;20377;-64
2022/11/15 05:15:30;;;;;;;10.20;2.00;;;11.50;99.90;;;;;;5045962;28;20060;-63
2022/11/15 05:18:15;;;;;;;12.90;2.53;;;11.50;99.90;;;;;;5054119;28;20811;-63
2022/11/15 05:21:07;;;;;;;12.07;1.95;;;11.60;99.90;;;;;;5038175;28;20377;-64
2022/11/15 05:23:52;;;;;;;13.32;2.22;;;11.60;99.90;;;;;;5045449;28;20056;-63
2022/11/15 05:26:37;;;;;;;11.93;2.70;;;11.70;99.90;;;;;;5054011;28;20098;-63
2022/11/15 05:29:22;;;;;;;15.35;3.08;;;11.70;99.90;;;;;;5035045;28;20306;-63
2022/11/15 05:32:07;;;;;;;15.80;2.70;;;11.80;99.90;;;;;;5037116;28;20122;-63
2022/11/15 05:34:52;;;;;;;13.60;2.80;;;11.80;99.90;;;;;;5042899;28;20375;-64
2022/11/15 05:37:37;;;;;;;11.30;2.65;;;11.80;99.90;;;;;;5047636;28;20401;-63
2022/11/15 05:40:22;;;;;;;13.68;2.35;;;11.80;99.90;;;;;;5062326;28;20191;-63
2022/11/15 05:43:07;;;;;;;17.88;3.00;;;11.80;99.90;;;;;;5048063;28;20399;-64
2022/11/15 05:45:52;;;;;;;21.73;2.85;;;11.90;99.90;;;;;;5038805;28;20056;-63
2022/11/15 05:48:37;;;;;;;9.55;1.90;;;11.90;99.90;;;;;;5048187;28;20419;-63
2022/11/15 05:51:22;;;;;;;13.52;2.22;;;11.90;99.90;;;;;;5036258;28;20099;-62
2022/11/15 05:54:07;;;;;;;13.98;2.50;;;11.90;99.90;;;;;;5044671;28;20053;-63
2022/11/15 05:56:52;;;;;;;11.48;1.92;;;11.90;99.90;;;;;;5049341;28;20056;-62
2022/11/15 05:59:38;;;;;;;13.70;2.90;;;11.90;99.90;;;;;;5040336;28;20512;-63
2022/11/15 06:02:23;;;;;;;17.65;2.25;;;12.00;99.90;;;;;;5047947;28;20281;-63
2022/11/15 06:05:08;;;;;;;13.70;2.30;;;12.00;99.90;;;;;;5041169;28;20048;-64
2022/11/15 06:07:54;;;;;;;11.23;2.00;;;12.00;99.90;;;;;;5046094;28;20059;-63
2022/11/15 06:10:39;;;;;;;13.75;2.65;;;12.00;99.90;;;;;;5044576;28;20072;-63
2022/11/15 06:13:24;;;;;;;18.20;2.70;;;12.00;99.90;;;;;;5034579;28;20057;-63
2022/11/15 06:16:09;;;;;;;17.63;2.40;;;12.00;99.90;;;;;;5034453;28;20060;-63
2022/11/15 06:18:57;;;;;;;13.63;2.20;;;12.00;99.90;;;;;;5045331;28;20051;-63
2022/11/15 06:21:42;;;;;;;14.73;2.28;;;12.00;99.90;;;;;;5034011;28;20270;-62
2022/11/15 06:24:27;;;;;;;12.37;2.77;;;12.00;99.90;;;;;;5042247;28;20067;-63
2022/11/15 06:27:12;;;;;;;13.63;2.35;;;12.10;99.90;;;;;;5049153;28;20336;-64
2022/11/15 06:29:58;;;;;;;13.52;2.28;;;12.00;99.90;;;;;;5048833;28;20048;-63
2022/11/15 06:32:42;;;;;;;18.00;2.20;;;12.10;99.90;;;;;;5045675;28;20060;-63
2022/11/15 06:35:27;;;;;;;13.65;2.55;;;12.10;99.90;;;;;;5035267;28;20052;-63
2022/11/15 06:38:13;;;;;;;15.02;2.42;;;12.10;99.90;;;;;;5048661;28;20087;-63
2022/11/15 06:40:58;;;;;;;18.77;2.93;;;12.10;99.90;;;;;;5044825;28;20047;-64
2022/11/15 06:43:43;;;;;;;15.07;2.88;;;12.10;99.90;;;;;;5043111;28;20064;-63
2022/11/15 06:46:28;;;;;;;11.80;2.00;;;12.10;99.90;;;;;;5042540;28;20150;-62
2022/11/15 06:49:14;;;;;;;14.43;2.67;;;12.10;99.90;;;;;;5054163;28;20261;-63
2022/11/15 06:51:59;;;;;;;16.70;3.28;;;12.10;99.90;;;;;;5034416;28;20495;-63
2022/11/15 06:54:44;;;;;;;12.57;2.58;;;12.10;99.90;;;;;;5034216;28;20135;-63
2022/11/15 06:57:29;;;;;;;11.90;2.60;;;12.10;99.90;;;;;;5033847;28;20130;-63
2022/11/15 07:00:14;;;;;;;12.98;2.30;;;12.10;99.90;;;;;;5034805;28;20127;-63
2022/11/15 07:02:59;;;;;;;17.00;2.88;;;12.10;99.90;;;;;;5045364;28;20056;-63
2022/11/15 07:05:44;;;;;;;13.95;3.08;;;12.10;99.90;;;;;;5053991;28;20132;-64
2022/11/15 07:08:29;;;;;;;15.88;2.55;;;12.00;99.90;;;;;;5054295;28;20521;-63
2022/11/15 07:11:14;;;;;;;11.32;2.42;;;12.00;99.90;;;;;;5052943;28;20551;-63
2022/11/15 07:13:59;;;;;;;13.50;2.50;;;12.00;99.90;;;;;;5053417;28;20048;-64
2022/11/15 07:16:45;;;;;;;14.38;3.00;;;12.00;99.90;;;;;;5053571;28;20048;-63
2022/11/15 07:19:29;;;;;;;12.35;2.67;;;12.00;99.90;;;;;;5051766;28;20047;-63
2022/11/15 07:22:14;;;;;;;12.00;3.10;;;12.00;99.90;;;;;;5053641;28;20095;-63
2022/11/15 07:24:59;;;;;;;12.13;2.73;;;12.00;99.90;;;;;;5053213;28;20352;-63
2022/11/15 07:27:45;;;;;;;15.02;2.83;;;11.90;99.90;;;;;;5053986;28;20060;-62
2022/11/15 07:30:30;;;;;;;11.93;2.03;;;11.90;99.90;;;;;;5053705;28;20059;-63
2022/11/15 07:33:16;;;;;;;14.18;2.67;;;12.00;99.90;;;;;;5053812;28;20503;-63
2022/11/15 07:36:01;;;;;;;11.57;2.70;;;12.00;99.90;;;;;;5038171;28;20056;-62
2022/11/15 07:38:46;;;;;;;10.00;2.20;;;12.00;99.90;;;;;;5038977;28;20265;-63
2022/11/15 07:41:31;;;;;;;15.30;2.27;;;11.90;99.90;;;;;;5061138;28;20055;-63
2022/11/15 07:44:17;;;;;;;10.90;2.05;;;11.90;99.90;;;;;;5068361;28;20369;-62
2022/11/15 07:47:02;;;;;;;44.25;23.23;;;11.90;99.90;;;;;;5047919;28;20144;-64
2022/11/15 07:49:48;;;;;;;14.98;4.82;;;11.90;99.90;;;;;;5036932;28;20049;-63
2022/11/15 07:52:33;;;;;;;10.32;2.60;;;11.80;99.90;;;;;;5049319;28;20055;-62
2022/11/15 07:55:18;;;;;;;25.08;4.38;;;11.80;99.90;;;;;;5055926;28;20408;-63
2022/11/15 07:58:03;;;;;;;21.98;2.60;;;11.80;99.90;;;;;;5048063;28;20490;-62
2022/11/15 08:00:49;;;;;;;30.45;2.67;;;11.80;99.90;;;;;;5056240;28;20078;-63
2022/11/15 08:03:34;;;;;;;13.68;1.98;;;11.80;99.90;;;;;;5036714;28;20047;-63
2022/11/15 08:06:19;;;;;;;10.10;2.15;;;11.80;99.90;;;;;;5046877;28;20084;-63
2022/11/15 08:09:04;;;;;;;19.00;3.00;;;11.80;99.90;;;;;;5044051;28;20060;-63
2022/11/15 08:11:50;;;;;;;9.90;2.10;;;11.80;99.90;;;;;;5044810;28;20052;-63
2022/11/15 08:14:35;;;;;;;15.32;2.85;;;11.70;99.90;;;;;;5055514;28;20055;-63
2022/11/15 08:17:21;;;;;;;7.93;1.88;;;11.70;99.90;;;;;;5055563;28;20048;-63
2022/11/15 08:20:06;;;;;;;7.67;1.70;;;11.70;99.90;;;;;;5056426;28;20466;-63
2022/11/15 08:22:51;;;;;;;8.15;1.92;;;11.80;99.90;;;;;;5054303;28;20258;-63
2022/11/15 08:25:36;;;;;;;8.25;2.30;;;11.80;99.90;;;;;;5053325;28;20063;-63
2022/11/15 08:28:21;;;;;;;8.18;1.65;;;11.80;99.90;;;;;;5043436;28;20102;-63
2022/11/15 08:31:07;;;;;;;11.32;1.55;;;11.80;99.90;;;;;;5038413;28;20056;-63
2022/11/15 08:33:52;;;;;;;6.63;1.63;;;11.80;99.90;;;;;;5051512;28;20114;-63
2022/11/15 08:36:37;;;;;;;9.90;1.40;;;11.80;99.90;;;;;;5055396;28;20047;-63
2022/11/15 08:39:30;;;;;;;19.73;1.88;;;11.80;99.90;;;;;;5038757;28;20281;-61
2022/11/15 08:42:16;;;;;;;9.82;1.52;;;11.90;99.90;;;;;;5039041;28;20053;-63
2022/11/15 08:45:04;;;;;;;18.45;2.35;;;11.90;99.90;;;;;;5038479;28;20515;-63
2022/11/15 08:47:49;;;;;;;5.97;1.53;;;11.90;99.90;;;;;;5041227;28;20053;-63
2022/11/15 08:50:38;;;;;;;6.90;1.50;;;11.90;99.90;;;;;;5035448;28;20057;-64
2022/11/15 08:53:23;;;;;;;6.90;1.40;;;11.90;99.90;;;;;;5050614;28;20095;-64
2022/11/15 08:56:08;;;;;;;8.57;1.20;;;12.00;99.90;;;;;;5034852;28;20056;-63
2022/11/15 08:58:54;;;;;;;12.73;1.98;;;11.90;99.90;;;;;;5041791;28;20091;-65
2022/11/15 09:01:39;;;;;;;2.80;1.02;;;12.00;99.90;;;;;;5046134;28;20052;-63
2022/11/15 09:04:25;;;;;;;15.82;2.30;;;12.00;99.90;;;;;;5041835;28;20539;-63
2022/11/15 09:07:10;;;;;;;3.65;1.20;;;12.10;99.90;;;;;;5036426;28;20135;-62
2022/11/15 09:09:56;;;;;;;8.38;1.17;;;12.10;99.90;;;;;;5041913;28;20063;-62
2022/11/15 09:12:41;;;;;;;4.00;1.00;;;12.10;99.90;;;;;;5037520;28;20052;-61
2022/11/15 09:15:26;;;;;;;2.63;1.00;;;12.10;99.90;;;;;;5036184;28;20052;-62
2022/11/15 09:18:11;;;;;;;3.10;1.20;;;12.10;99.90;;;;;;5044078;28;20044;-62
2022/11/15 09:20:56;;;;;;;3.77;1.00;;;12.10;99.90;;;;;;5046406;28;20048;-62
2022/11/15 09:23:42;;;;;;;3.15;0.68;;;12.20;99.90;;;;;;5044462;28;20048;-62
2022/11/15 09:26:28;;;;;;;5.43;1.17;;;12.20;99.90;;;;;;5054026;28;20463;-62
2022/11/15 09:29:13;;;;;;;7.80;0.98;;;12.20;99.90;;;;;;5048304;28;20400;-62
2022/11/15 09:31:58;;;;;;;6.60;1.65;;;12.20;99.90;;;;;;5054669;28;20654;-62
2022/11/15 09:34:43;;;;;;;4.22;1.00;;;12.20;99.90;;;;;;5052798;28;20068;-61
2022/11/15 09:37:29;;;;;;;4.20;1.05;;;12.20;99.90;;;;;;5042550;28;20091;-62
2022/11/15 09:40:16;;;;;;;39.75;5.25;;;12.20;99.90;;;;;;5046109;28;20047;-62
2022/11/15 09:43:02;;;;;;;12.70;1.85;;;12.20;99.90;;;;;;5045781;28;20048;-63
2022/11/15 09:45:48;;;;;;;5.25;1.08;;;12.20;99.90;;;;;;5048067;28;20523;-63
2022/11/15 09:48:32;;;;;;;3.17;0.97;;;12.20;99.90;;;;;;5046811;28;20059;-62
2022/11/15 09:51:23;;;;;;;8.18;1.15;;;12.20;99.90;;;;;;5048894;28;20056;-63
2022/11/15 09:53:50;;;;;;;83.05;8.55;;;12.20;99.90;;;;;;5048628;28;20041;-63
2022/11/15 09:56:37;;;;;;;6.28;1.45;;;12.30;99.90;;;;;;5049142;28;20048;-63
2022/11/15 09:59:03;;;;;;;17.13;2.08;;;12.30;99.90;;;;;;5048482;28;20043;-63
2022/11/15 10:01:30;;;;;;;17.42;2.42;;;12.30;99.90;;;;;;5049565;28;20040;-62
2022/11/15 10:03:58;;;;;;;3.72;1.00;;;12.30;99.90;;;;;;5049052;28;20041;-62
2022/11/15 10:06:25;;;;;;;3.05;0.88;;;12.30;99.90;;;;;;5049627;28;20095;-63
2022/11/15 10:08:52;;;;;;;4.90;1.38;;;12.30;99.90;;;;;;5049331;28;20041;-63
2022/11/15 10:11:19;;;;;;;7.65;1.38;;;12.30;99.90;;;;;;5050365;28;20044;-63
2022/11/15 10:14:04;;;;;;;7.57;1.27;;;12.30;99.90;;;;;;5048718;28;20056;-62
2022/11/15 10:16:30;;;;;;;10.82;1.90;;;12.30;99.90;;;;;;5051392;28;20098;-63
2022/11/15 10:18:57;;;;;;;8.88;1.13;;;12.30;99.90;;;;;;5052409;28;20045;-62
2022/11/15 10:21:24;;;;;;;6.53;1.33;;;12.30;99.90;;;;;;5051957;28;20123;-62
2022/11/15 10:23:51;;;;;;;4.28;1.35;;;12.40;99.90;;;;;;5049624;28;20037;-62
2022/11/15 10:26:17;;;;;;;8.20;1.65;;;12.40;99.90;;;;;;5048030;28;20086;-62
2022/11/15 10:28:44;;;;;;;11.48;1.50;;;12.40;99.90;;;;;;5048803;28;20172;-61
2022/11/15 10:31:11;;;;;;;32.70;6.35;;;12.40;99.90;;;;;;5048032;28;20041;-62
2022/11/15 10:33:41;;;;;;;367.48;41.85;;;12.40;99.90;;;;;;5048559;28;20106;-62
2022/11/15 10:36:07;;;;;;;12.00;3.03;;;12.40;99.90;;;;;;5048923;28;20040;-63
2022/11/15 10:38:34;;;;;;;15.82;2.58;;;12.50;99.90;;;;;;5045574;28;20037;-62
2022/11/15 10:41:01;;;;;;;16.30;2.45;;;12.50;99.90;;;;;;5049516;28;20548;-63
2022/11/15 10:43:27;;;;;;;251.85;30.52;;;12.50;99.90;;;;;;5047386;28;20037;-64
2022/11/15 10:45:54;;;;;;;8.45;2.17;;;12.50;99.90;;;;;;5045643;28;20080;-66
2022/11/15 10:48:21;;;;;;;10.32;2.67;;;12.50;99.90;;;;;;5052952;28;20377;-64
2022/11/15 10:50:48;;;;;;;9.30;2.05;;;12.50;99.90;;;;;;5052492;28;20035;-65
2022/11/15 10:53:14;;;;;;;28.90;3.35;;;12.50;99.90;;;;;;5041502;28;20038;-64
2022/11/15 10:55:41;;;;;;;20.35;11.75;;;12.60;99.90;;;;;;5045887;28;20052;-64
2022/11/15 10:58:08;;;;;;;32.00;9.25;;;12.60;99.90;;;;;;5049274;28;20032;-64
2022/11/15 11:00:35;;;;;;;18.15;4.18;;;12.60;99.90;;;;;;5051173;28;20095;-63
2022/11/15 11:03:01;;;;;;;7.20;2.05;;;12.60;99.90;;;;;;5051458;28;20503;-65
2022/11/15 11:05:28;;;;;;;17.23;2.58;;;12.70;99.90;;;;;;5042510;28;20395;-63
2022/11/15 11:07:55;;;;;;;10.02;1.73;;;12.70;99.90;;;;;;5042410;28;20041;-63
2022/11/15 11:10:22;;;;;;;5.80;1.48;;;12.70;99.90;;;;;;5047178;28;20037;-63
2022/11/15 11:13:08;;;;;;;8.70;1.35;;;12.70;99.90;;;;;;5042279;28;20051;-64
2022/11/15 11:15:35;;;;;;;4.97;1.20;;;12.70;99.90;;;;;;5047493;28;20045;-64
2022/11/15 11:18:02;;;;;;;28.52;2.88;;;12.70;99.90;;;;;;5038271;28;20077;-64
2022/11/15 11:20:29;;;;;;;11.50;1.42;;;12.70;99.90;;;;;;5054595;28;20045;-64
2022/11/15 11:22:55;;;;;;;13.30;1.50;;;12.70;99.90;;;;;;5053844;28;20041;-62
2022/11/15 11:25:22;;;;;;;12.05;1.45;;;12.70;99.90;;;;;;5052863;28;20432;-62
2022/11/15 11:27:49;;;;;;;4.30;1.10;;;12.80;99.90;;;;;;5049363;28;20045;-63
2022/11/15 11:30:16;;;;;;;3.55;0.80;;;12.80;99.90;;;;;;5053348;28;20511;-64
2022/11/15 11:32:42;;;;;;;3.40;0.95;;;12.80;99.90;;;;;;5051936;28;20455;-64
2022/11/15 11:35:09;;;;;;;8.30;1.00;;;12.80;99.90;;;;;;5054689;28;20091;-63
2022/11/15 11:37:36;;;;;;;10.13;1.38;;;12.80;99.90;;;;;;5052469;28;20438;-63
2022/11/15 11:40:03;;;;;;;2.78;1.00;;;12.80;99.90;;;;;;5050086;28;20040;-64
2022/11/15 11:42:36;;;;;;;3.42;0.80;;;12.80;99.90;;;;;;5050093;28;20045;-63
2022/11/15 11:45:03;;;;;;;10.75;2.80;;;12.80;99.90;;;;;;5051028;28;20091;-63
2022/11/15 11:47:29;;;;;;;6.07;1.17;;;12.70;99.90;;;;;;5051035;28;20041;-64
2022/11/15 11:49:56;;;;;;;4.55;1.20;;;12.80;99.90;;;;;;5052876;28;20095;-62
2022/11/15 11:52:23;;;;;;;3.97;1.00;;;12.70;99.90;;;;;;5054934;28;20106;-63
2022/11/15 11:54:49;;;;;;;4.78;1.20;;;12.70;99.90;;;;;;5050810;28;20029;-64
2022/11/15 11:57:16;;;;;;;7.55;1.35;;;12.70;99.90;;;;;;5052233;28;20037;-63
2022/11/15 11:59:43;;;;;;;6.45;1.35;;;12.70;99.90;;;;;;5055751;28;20045;-63
2022/11/15 12:02:09;;;;;;;10.65;1.65;;;12.70;99.90;;;;;;5051073;28;20045;-63
2022/11/15 12:04:36;;;;;;;5.15;0.95;;;12.70;99.90;;;;;;5053806;28;20144;-63
2022/11/15 12:07:03;;;;;;;4.40;1.10;;;12.80;99.90;;;;;;5050966;28;20521;-63
2022/11/15 12:09:30;;;;;;;8.45;1.45;;;12.80;99.90;;;;;;5055124;28;20140;-63
2022/11/15 12:11:57;;;;;;;4.13;0.73;;;12.80;99.90;;;;;;5055780;28;20068;-61
2022/11/15 12:14:23;;;;;;;9.02;1.70;;;12.70;99.90;;;;;;5055174;28;20091;-62
2022/11/15 12:16:50;;;;;;;4.95;1.10;;;12.80;99.90;;;;;;5046623;28;20045;-62
2022/11/15 12:19:17;;;;;;;8.43;1.63;;;12.80;99.90;;;;;;5054764;28;20435;-63
2022/11/15 12:21:43;;;;;;;2.95;1.00;;;12.80;99.90;;;;;;5051991;28;20534;-63
2022/11/15 12:24:10;;;;;;;14.63;1.40;;;12.80;99.90;;;;;;5047410;28;20049;-62
2022/11/15 12:26:37;;;;;;;7.78;1.60;;;12.80;99.90;;;;;;5053041;28;20038;-62
2022/11/15 12:29:04;;;;;;;5.93;1.60;;;12.80;99.90;;;;;;5050154;28;20451;-63
2022/11/15 12:31:34;;;;;;;6.40;1.48;;;12.80;99.90;;;;;;5042265;28;20123;-62
2022/11/15 12:34:01;;;;;;;5.47;1.48;;;12.80;99.90;;;;;;5052827;28;20116;-63
2022/11/15 12:36:33;;;;;;;35.85;2.30;;;12.90;99.90;;;;;;5045838;28;20099;-62
2022/11/15 12:39:00;;;;;;;30.70;2.65;;;12.90;99.90;;;;;;5047925;28;20055;-64
2022/11/15 12:41:26;;;;;;;12.02;1.60;;;12.80;99.90;;;;;;5048312;28;20487;-63
2022/11/15 12:43:53;;;;;;;9.73;1.80;;;12.90;99.90;;;;;;5049245;28;20037;-64
2022/11/15 12:46:21;;;;;;;8.77;1.50;;;12.90;99.90;;;;;;5049646;28;20452;-63
2022/11/15 12:48:48;;;;;;;4.53;1.33;;;12.90;99.90;;;;;;5045778;28;20045;-64
2022/11/15 12:51:14;;;;;;;5.68;1.80;;;12.90;99.90;;;;;;5043792;28;20120;-63
2022/11/15 12:53:41;;;;;;;6.00;1.30;;;12.90;99.90;;;;;;5049595;28;20045;-63
2022/11/15 12:56:08;;;;;;;6.13;1.40;;;13.00;99.90;;;;;;5047235;28;20037;-61
2022/11/15 12:58:34;;;;;;;5.55;1.27;;;13.00;99.90;;;;;;5048275;28;20120;-62
2022/11/15 13:01:01;;;;;;;4.55;1.30;;;13.00;99.90;;;;;;5047472;28;20045;-62
2022/11/15 13:03:28;;;;;;;3.67;1.23;;;13.00;99.90;;;;;;5048071;28;20110;-61
2022/11/15 13:05:55;;;;;;;8.73;1.48;;;13.10;99.90;;;;;;5050426;28;20060;-60
2022/11/15 13:08:22;;;;;;;7.28;1.30;;;13.10;99.90;;;;;;5054245;28;20072;-60
2022/11/15 13:10:48;;;;;;;6.18;1.30;;;13.10;99.90;;;;;;5054163;28;20049;-62
2022/11/15 13:13:15;;;;;;;5.65;1.40;;;13.10;99.90;;;;;;5054521;28;20057;-62
2022/11/15 13:15:42;;;;;;;15.38;1.80;;;13.10;99.90;;;;;;5053788;28;20212;-62
2022/11/15 13:18:08;;;;;;;21.02;2.50;;;13.10;99.90;;;;;;5053490;28;20476;-62
2022/11/15 13:20:35;;;;;;;8.07;1.98;;;13.10;99.90;;;;;;5053522;28;20037;-61
2022/11/15 13:23:02;;;;;;;7.28;1.35;;;13.10;99.90;;;;;;5054259;28;20102;-62
2022/11/15 13:25:29;;;;;;;7.55;1.60;;;13.20;99.90;;;;;;5053853;28;20496;-61
2022/11/15 13:27:57;;;;;;;7.60;1.50;;;13.20;99.90;;;;;;5053305;28;20041;-60
2022/11/15 13:30:29;;;;;;;8.93;1.75;;;13.30;99.90;;;;;;5053722;28;20047;-61
2022/11/15 13:32:55;;;;;;;8.63;1.90;;;13.40;99.90;;;;;;5050709;28;20453;-61
2022/11/15 13:35:22;;;;;;;12.52;2.10;;;13.50;99.90;;;;;;5052913;28;20127;-61
2022/11/15 13:37:49;;;;;;;48.67;5.60;;;13.60;99.90;;;;;;5053323;28;20108;-62
2022/11/15 13:40:16;;;;;;;210.65;21.60;;;13.60;99.90;;;;;;5053589;28;20045;-61
2022/11/15 13:42:43;;;;;;;34.50;2.53;;;13.70;99.90;;;;;;5052860;28;20052;-61
2022/11/15 13:45:11;;;;;;;34.30;2.67;;;13.70;99.90;;;;;;5053382;28;20396;-61
2022/11/15 13:47:38;;;;;;;15.40;1.95;;;13.80;99.90;;;;;;5050777;28;20124;-61
2022/11/15 13:50:05;;;;;;;13.38;2.13;;;13.70;99.90;;;;;;5048094;28;20488;-61
2022/11/15 13:52:39;;;;;;;160.13;13.55;;;13.80;99.90;;;;;;5047539;28;20127;-61
2022/11/15 13:55:08;;;;;;;9.18;1.95;;;13.80;99.90;;;;;;5048833;28;20117;-61